Time;durP1;ratioP1;P1;durP2;ratioP2;P2;SDS_P1;SDS_P2;PMS_P1;PMS_P2;Temp;Humidity;BMP_temperature;BMP_pressure;BME280_temperature;BME280_humidity;BME280_pressure;Samples;Min_cycle;Max_cycle;Signal;HPM_P1;HPM_P2
2022/08/14 00:00:23;;;;;;;;;6.00;5.75;;;;;27.67;26.10;100450.66;5097653;27;45640;-54
2022/08/14 00:02:49;;;;;;;;;6.60;6.00;;;;;27.65;25.57;100443.84;5097929;27;45416;-54
2022/08/14 00:05:19;;;;;;;;;5.50;5.00;;;;;27.62;25.81;100439.72;5097362;27;46029;-54
2022/08/14 00:07:45;;;;;;;;;4.40;4.40;;;;;27.52;25.48;100415.91;5097554;27;45344;-52
2022/08/14 00:10:14;;;;;;;;;1.50;1.50;;;;;27.54;25.46;100427.38;5097773;27;45234;-54
2022/08/14 00:12:48;;;;;;;;;4.80;4.80;;;;;27.52;25.92;100424.09;5097460;27;45446;-52
2022/08/14 00:15:29;;;;;;;;;5.60;4.40;;;;;27.51;25.78;100416.16;5097415;27;47330;-53
2022/08/14 00:17:54;;;;;;;;;4.00;4.00;;;;;27.46;25.95;100416.97;5097541;27;45358;-53
2022/08/14 00:20:26;;;;;;;;;6.75;4.25;;;;;27.42;25.84;100410.38;5097611;27;45342;-53
2022/08/14 00:22:52;;;;;;;;;5.60;5.60;;;;;27.41;25.67;100406.03;5097497;27;45214;-53
2022/08/14 00:25:17;;;;;;;;;5.50;4.50;;;;;27.36;26.15;100406.00;5097422;27;46101;-53
2022/08/14 00:27:43;;;;;;;;;5.00;5.00;;;;;27.23;26.13;100379.19;5096975;27;45283;-54
2022/08/14 00:30:11;;;;;;;;;5.00;5.00;;;;;27.28;26.17;100393.66;5097392;27;45251;-54
2022/08/14 00:32:38;;;;;;;;;4.80;4.80;;;;;27.27;26.26;100389.31;5097703;27;45341;-53
2022/08/14 00:35:05;;;;;;;;;5.00;5.00;;;;;27.22;25.86;100385.72;5097365;27;45310;-53
2022/08/14 00:37:31;;;;;;;;;4.80;4.80;;;;;27.17;26.68;100389.25;5096930;27;45356;-53
2022/08/14 00:39:58;;;;;;;;;5.60;5.60;;;;;27.15;26.36;100388.69;5097128;27;45634;-52
2022/08/14 00:42:23;;;;;;;;;7.40;5.20;;;;;27.11;26.39;100385.66;5097398;27;45411;-53
2022/08/14 00:44:49;;;;;;;;;7.25;5.50;;;;;27.06;27.13;100385.63;5097023;27;45921;-55
2022/08/14 00:47:16;;;;;;;;;5.60;5.00;;;;;26.97;26.45;100373.56;5097224;27;45395;-54
2022/08/14 00:49:43;;;;;;;;;4.00;4.00;;;;;27.00;26.47;100383.09;5097332;27;45333;-54
2022/08/14 00:52:10;;;;;;;;;6.40;5.00;;;;;26.96;26.60;100388.28;5097564;27;45266;-54
2022/08/14 00:54:39;;;;;;;;;5.60;5.60;;;;;26.90;26.51;100378.41;5096903;27;46165;-54
2022/08/14 00:57:04;;;;;;;;;8.00;6.00;;;;;26.83;26.89;100377.81;5097024;27;45303;-54
2022/08/14 00:59:30;;;;;;;;;4.75;4.75;;;;;26.68;27.68;100356.72;5097095;27;45260;-54
2022/08/14 01:01:58;;;;;;;;;4.75;4.50;;;;;26.77;26.91;100373.44;5098392;27;45405;-54
2022/08/14 01:04:24;;;;;;;;;4.20;4.20;;;;;26.73;27.23;100375.84;5100332;27;45653;-55
2022/08/14 01:06:50;;;;;;;;;7.25;5.50;;;;;26.71;27.78;100372.56;5100541;27;45470;-53
2022/08/14 01:09:21;;;;;;;;;6.80;6.80;;;;;26.68;27.40;100364.09;5100501;27;45291;-54
2022/08/14 01:11:48;;;;;;;;;4.60;4.60;;;;;26.62;28.07;100358.59;5100617;27;45321;-55
2022/08/14 01:14:15;;;;;;;;;3.00;2.40;;;;;26.63;27.88;100351.22;5099974;27;46194;-54
2022/08/14 01:16:40;;;;;;;;;5.80;5.00;;;;;26.57;27.31;100344.91;5100171;27;45190;-54
2022/08/14 01:21:50;;;;;;;;;5.00;4.20;;;;;26.46;28.34;100340.47;5100409;27;45298;-53
2022/08/14 01:24:15;;;;;;;;;6.50;5.50;;;;;26.39;27.89;100326.22;5100253;27;46092;-54
2022/08/14 01:26:42;;;;;;;;;5.25;5.25;;;;;26.40;28.53;100327.84;5100151;27;45365;-55
2022/08/14 01:29:08;;;;;;;;;5.20;5.20;;;;;26.33;28.13;100328.06;5100057;27;45385;-52
2022/08/14 01:31:40;;;;;;;;;7.00;6.00;;;;;26.33;28.15;100333.50;5100327;27;45457;-53
2022/08/14 01:34:06;;;;;;;;;3.80;3.80;;;;;26.32;27.62;100336.50;5099784;27;47260;-55
2022/08/14 01:36:36;;;;;;;;;5.40;4.00;;;;;26.31;28.96;100338.41;5099868;27;45255;-56
2022/08/14 01:39:06;;;;;;;;;3.80;3.80;;;;;26.28;28.21;100335.38;5100355;27;45293;-53
2022/08/14 01:41:33;;;;;;;;;5.60;5.20;;;;;26.18;28.46;100327.97;5100268;27;45414;-54
2022/08/14 01:44:02;;;;;;;;;5.80;5.20;;;;;26.20;28.18;100333.13;5099577;27;46708;-53
2022/08/14 01:46:34;;;;;;;;;5.20;5.20;;;;;26.16;28.84;100340.19;5099865;27;45211;-54
2022/08/14 01:49:00;;;;;;;;;4.40;4.40;;;;;26.17;28.88;100339.94;5099929;27;45233;-54
2022/08/14 01:51:27;;;;;;;;;7.00;4.80;;;;;26.16;28.76;100341.00;5099844;27;45459;-52
2022/08/14 01:53:56;;;;;;;;;4.00;4.00;;;;;26.11;28.76;100339.06;5099589;27;46412;-54
2022/08/14 01:56:35;;;;;;;;;4.80;4.80;;;;;26.07;29.31;100332.50;5099554;27;45374;-53
2022/08/14 01:59:00;;;;;;;;;5.00;5.00;;;;;26.03;28.84;100327.81;5099576;27;45249;-53
2022/08/14 02:01:26;;;;;;;;;5.75;4.00;;;;;26.01;28.91;100321.81;5099928;27;45330;-52
2022/08/14 02:03:51;;;;;;;;;9.00;6.00;;;;;26.03;29.31;100325.91;5099387;27;45352;-54
2022/08/14 02:06:17;;;;;;;;;4.50;4.00;;;;;26.02;28.93;100323.44;5099354;27;45389;-53
2022/08/14 02:08:42;;;;;;;;;3.50;3.50;;;;;25.94;28.67;100316.56;5099681;27;45330;-52
2022/08/14 02:11:17;;;;;;;;;5.00;5.00;;;;;25.96;28.52;100329.94;5099833;27;45384;-54
2022/08/14 02:13:45;;;;;;;;;5.00;3.60;;;;;25.94;29.02;100318.47;5098058;27;46319;-56
2022/08/14 02:16:16;;;;;;;;;4.40;4.00;;;;;25.90;28.84;100311.88;5099635;27;45439;-55
2022/08/14 02:18:42;;;;;;;;;5.20;3.00;;;;;25.91;29.69;100313.53;5099474;27;45322;-54
2022/08/14 02:21:08;;;;;;;;;4.00;4.00;;;;;25.94;29.36;100313.84;5099694;27;45313;-53
2022/08/14 02:23:35;;;;;;;;;4.20;4.20;;;;;25.87;29.14;100299.59;5099163;27;47018;-53
2022/08/14 02:26:05;;;;;;;;;0.60;0.60;;;;;25.83;28.63;100293.00;5099158;27;45338;-55
2022/08/14 02:28:30;;;;;;;;;5.20;5.20;;;;;25.90;28.86;100307.25;5098596;27;45281;-53
2022/08/14 02:30:59;;;;;;;;;6.75;5.00;;;;;25.89;29.72;100297.44;5080977;27;45658;-54
2022/08/14 02:33:26;;;;;;;;;5.00;4.80;;;;;25.88;29.13;100290.38;5099251;27;46214;-55
2022/08/14 02:35:52;;;;;;;;;5.80;4.60;;;;;25.89;29.12;100286.56;5098747;27;45493;-54
2022/08/14 02:38:18;;;;;;;;;5.40;4.80;;;;;25.87;29.47;100288.69;5099083;27;45237;-53
2022/08/14 02:40:43;;;;;;;;;6.75;6.00;;;;;25.84;29.40;100289.22;5099382;27;45397;-53
2022/08/14 02:43:08;;;;;;;;;7.00;6.25;;;;;25.86;29.41;100284.34;5098931;27;45251;-53
2022/08/14 02:45:34;;;;;;;;;5.25;5.25;;;;;25.76;29.57;100270.59;5098826;27;45321;-54
2022/08/14 02:48:01;;;;;;;;;6.50;3.50;;;;;25.77;28.94;100269.53;5098889;27;45313;-57
2022/08/14 02:50:27;;;;;;;;;5.40;4.60;;;;;25.76;29.27;100271.41;5098884;27;45308;-54
2022/08/14 02:52:54;;;;;;;;;4.75;4.75;;;;;25.80;29.67;100266.31;5098610;27;46016;-54
2022/08/14 02:55:20;;;;;;;;;6.00;5.00;;;;;25.72;29.59;100258.56;5098777;27;45262;-52
2022/08/14 02:57:48;;;;;;;;;4.75;4.75;;;;;25.69;29.48;100249.00;5098844;27;45263;-53
2022/08/14 03:00:13;;;;;;;;;4.00;4.00;;;;;25.78;29.46;100261.09;5098763;27;45350;-53
2022/08/14 03:02:40;;;;;;;;;4.50;4.50;;;;;25.78;29.34;100268.47;5098469;27;45407;-54
2022/08/14 03:05:05;;;;;;;;;5.00;5.00;;;;;25.74;29.43;100268.13;5097237;27;45425;-52
2022/08/14 03:07:31;;;;;;;;;5.25;5.00;;;;;25.71;29.06;100273.28;5098698;27;45386;-52
2022/08/14 03:09:56;;;;;;;;;7.00;5.00;;;;;25.70;29.21;100269.72;5098678;27;45387;-54
2022/08/14 03:12:22;;;;;;;;;6.00;6.00;;;;;25.66;29.17;100281.38;5098280;27;45407;-54
2022/08/14 03:14:50;;;;;;;;;5.80;5.00;;;;;25.66;30.11;100276.75;5098182;27;45411;-54
2022/08/14 03:17:16;;;;;;;;;5.40;4.00;;;;;25.67;30.15;100280.31;5098468;27;45413;-54
2022/08/14 03:19:42;;;;;;;;;4.00;4.00;;;;;25.68;29.74;100273.78;5098649;27;45571;-55
2022/08/14 03:22:07;;;;;;;;;6.00;4.00;;;;;25.68;29.67;100274.59;5098176;27;46131;-52
2022/08/14 03:24:33;;;;;;;;;5.25;4.75;;;;;25.66;29.54;100281.38;5097852;27;45374;-54
2022/08/14 03:26:58;;;;;;;;;7.25;5.75;;;;;25.58;29.77;100274.53;5098429;27;45414;-54
2022/08/14 03:29:24;;;;;;;;;3.75;3.75;;;;;25.57;29.64;100278.31;5098540;27;45303;-55
2022/08/14 03:31:50;;;;;;;;;5.25;5.25;;;;;25.60;29.58;100275.06;5098160;27;47205;-54
2022/08/14 03:34:17;;;;;;;;;4.60;4.60;;;;;25.60;29.64;100273.16;5097905;27;45384;-54
2022/08/14 03:36:44;;;;;;;;;6.60;3.60;;;;;25.47;29.88;100259.97;5097969;27;45322;-55
2022/08/14 03:39:10;;;;;;;;;5.00;5.00;;;;;25.55;29.94;100269.59;5098356;27;45484;-54
2022/08/14 03:41:36;;;;;;;;;6.40;4.20;;;;;25.52;29.94;100270.91;5097780;27;46354;-52
2022/08/14 03:44:04;;;;;;;;;4.75;4.75;;;;;25.41;29.73;100266.47;5097928;27;45323;-54
2022/08/14 03:46:33;;;;;;;;;4.40;4.40;;;;;25.48;29.82;100280.66;5097903;27;45287;-52
2022/08/14 03:49:01;;;;;;;;;5.50;5.00;;;;;25.47;30.10;100284.47;5098217;27;45384;-54
2022/08/14 03:51:27;;;;;;;;;4.20;4.20;;;;;25.42;30.13;100283.59;5096958;27;45299;-55
2022/08/14 03:53:58;;;;;;;;;6.00;5.00;;;;;25.42;30.09;100289.88;5097738;27;45401;-55
2022/08/14 03:56:25;;;;;;;;;7.40;6.00;;;;;25.39;29.96;100293.91;5097910;27;45356;-53
2022/08/14 03:58:54;;;;;;;;;6.00;4.00;;;;;25.36;30.38;100299.06;5098309;27;45285;-53
2022/08/14 04:01:22;;;;;;;;;5.00;5.00;;;;;25.30;30.13;100300.91;5097494;27;46373;-54
2022/08/14 04:03:49;;;;;;;;;6.00;6.00;;;;;25.27;30.41;100303.31;5097674;27;45468;-54
2022/08/14 04:06:16;;;;;;;;;3.40;3.40;;;;;25.25;30.54;100313.63;5097861;27;45327;-54
2022/08/14 04:08:42;;;;;;;;;5.00;5.00;;;;;25.26;30.83;100318.00;5097898;27;45447;-55
2022/08/14 04:11:09;;;;;;;;;6.60;4.80;;;;;25.24;30.69;100320.13;5097550;27;45358;-55
2022/08/14 04:13:38;;;;;;;;;5.20;4.00;;;;;25.13;30.83;100306.41;5097598;27;45211;-54
2022/08/14 04:16:06;;;;;;;;;4.60;4.40;;;;;25.19;31.03;100309.19;5097550;27;45384;-53
2022/08/14 04:18:31;;;;;;;;;6.00;6.00;;;;;25.14;31.06;100308.06;5097773;27;45553;-53
2022/08/14 04:20:57;;;;;;;;;8.25;5.50;;;;;25.17;30.66;100312.19;5097514;27;47019;-54
2022/08/14 04:23:23;;;;;;;;;6.00;6.00;;;;;25.09;30.42;100320.78;5097582;27;45326;-55
2022/08/14 04:25:52;;;;;;;;;8.80;5.60;;;;;25.03;30.94;100316.31;5097763;27;45230;-55
2022/08/14 04:28:18;;;;;;;;;4.75;4.75;;;;;25.02;30.52;100315.50;5098021;27;45426;-53
2022/08/14 04:30:44;;;;;;;;;5.00;5.00;;;;;24.97;31.33;100307.28;5097891;27;46312;-53
2022/08/14 04:33:10;;;;;;;;;3.75;3.75;;;;;24.91;31.64;100297.41;5097604;27;45471;-54
2022/08/14 04:35:36;;;;;;;;;7.75;7.75;;;;;24.92;31.55;100284.63;5097168;27;45319;-54
2022/08/14 04:43:38;;;;;;;;;6.00;6.00;;;;;24.97;31.34;100284.69;5100935;27;45300;-54
2022/08/14 04:46:12;;;;;;;;;5.40;5.40;;;;;24.93;31.65;100276.19;5100970;27;45575;-53
2022/08/14 04:48:39;;;;;;;;;6.00;6.00;;;;;24.82;31.62;100260.84;5101337;27;45312;-55
2022/08/14 04:51:14;;;;;;;;;6.00;5.50;;;;;24.95;31.38;100279.50;5100622;27;46066;-54
2022/08/14 04:53:42;;;;;;;;;6.40;6.40;;;;;24.93;31.07;100269.94;5100456;27;45322;-54
2022/08/14 04:56:09;;;;;;;;;5.80;5.80;;;;;24.85;31.85;100272.00;5100847;27;45414;-53
2022/08/14 04:58:35;;;;;;;;;5.00;5.00;;;;;24.80;31.87;100265.69;5100975;27;45537;-55
2022/08/14 05:01:05;;;;;;;;;6.00;6.00;;;;;24.78;31.51;100259.69;5100394;27;47511;-54
2022/08/14 05:03:34;;;;;;;;;6.20;6.20;;;;;24.76;31.59;100262.66;5100548;27;45349;-54
2022/08/14 05:06:02;;;;;;;;;5.20;5.20;;;;;24.74;31.43;100256.66;5100777;27;45476;-53
2022/08/14 05:08:29;;;;;;;;;6.25;5.00;;;;;24.68;32.03;100252.19;5082246;27;45474;-54
2022/08/14 05:10:57;;;;;;;;;7.50;6.00;;;;;24.71;31.92;100243.53;5100272;27;46057;-54
2022/08/14 05:13:27;;;;;;;;;5.00;5.00;;;;;24.67;31.45;100245.13;5100400;27;45206;-55
2022/08/14 05:15:56;;;;;;;;;5.00;5.00;;;;;24.63;32.36;100249.41;5100140;27;45402;-54
2022/08/14 05:18:24;;;;;;;;;7.50;5.00;;;;;24.60;31.66;100253.44;5100647;27;45330;-53
2022/08/14 05:20:52;;;;;;;;;7.00;5.25;;;;;24.58;32.14;100255.63;5100217;27;47340;-53
2022/08/14 05:23:21;;;;;;;;;4.40;4.40;;;;;24.53;32.84;100261.00;5100444;27;45314;-53
2022/08/14 05:25:48;;;;;;;;;6.00;4.25;;;;;24.53;31.63;100260.16;5100322;27;45320;-53
2022/08/14 05:28:19;;;;;;;;;6.00;5.00;;;;;24.46;32.84;100273.13;5100546;27;45368;-54
2022/08/14 05:30:54;;;;;;;;;5.00;3.75;;;;;24.45;32.51;100266.84;5099907;27;45418;-54
2022/08/14 05:33:23;;;;;;;;;5.40;4.60;;;;;24.45;32.64;100276.91;5098237;27;45297;-53
2022/08/14 05:35:50;;;;;;;;;4.00;4.00;;;;;24.47;32.52;100272.03;5094865;27;45380;-53
2022/08/14 05:38:19;;;;;;;;;6.75;6.75;;;;;24.43;32.81;100274.41;5101057;27;45326;-53
2022/08/14 05:40:45;;;;;;;;;5.00;5.00;;;;;24.42;32.88;100267.34;5099636;27;46081;-53
2022/08/14 05:43:12;;;;;;;;;6.00;6.00;;;;;24.41;32.99;100246.69;5100575;27;45504;-51
2022/08/14 05:45:37;;;;;;;;;7.50;6.00;;;;;24.43;32.90;100246.41;5100000;27;45231;-54
2022/08/14 05:48:05;;;;;;;;;6.00;4.75;;;;;24.43;33.13;100239.06;5100310;27;45193;-52
2022/08/14 05:50:32;;;;;;;;;5.00;5.00;;;;;24.49;32.75;100237.28;5099630;27;45428;-53
2022/08/14 05:52:57;;;;;;;;;4.80;4.80;;;;;24.44;32.72;100232.59;5099877;27;45359;-52
2022/08/14 05:55:23;;;;;;;;;5.50;5.50;;;;;24.47;32.71;100248.38;5099144;27;45716;-52
2022/08/14 05:57:57;;;;;;;;;7.00;5.25;;;;;24.49;33.14;100250.88;5100133;27;45352;-53
2022/08/14 06:00:24;;;;;;;;;5.20;5.20;;;;;24.53;33.04;100249.28;5099529;27;46013;-53
2022/08/14 06:02:50;;;;;;;;;5.20;5.20;;;;;24.55;32.59;100245.22;5099557;27;45384;-53
2022/08/14 06:05:15;;;;;;;;;6.25;5.50;;;;;24.59;33.43;100242.84;5099749;27;45341;-53
2022/08/14 06:07:41;;;;;;;;;6.50;5.00;;;;;24.66;32.92;100237.22;5099901;27;45536;-54
2022/08/14 06:10:09;;;;;;;;;9.00;6.25;;;;;24.63;32.80;100244.81;5099700;27;45397;-53
2022/08/14 06:12:35;;;;;;;;;4.80;4.80;;;;;24.60;32.44;100247.19;5099493;27;45259;-53
2022/08/14 06:15:00;;;;;;;;;10.00;6.75;;;;;24.59;33.23;100243.66;5099645;27;45425;-54
2022/08/14 06:17:26;;;;;;;;;6.00;6.00;;;;;24.64;32.81;100243.72;5099521;27;45309;-54
2022/08/14 06:19:51;;;;;;;;;6.50;6.50;;;;;24.67;32.45;100230.72;5099370;27;45974;-53
2022/08/14 06:22:17;;;;;;;;;8.00;8.00;;;;;24.70;32.36;100230.22;5099463;27;45387;-54
2022/08/14 06:24:42;;;;;;;;;9.25;6.25;;;;;24.86;32.75;100242.91;5099736;27;45302;-54
2022/08/14 06:27:08;;;;;;;;;6.00;6.00;;;;;24.92;32.58;100232.94;5099675;27;45379;-53
2022/08/14 06:29:33;;;;;;;;;7.25;6.00;;;;;25.00;32.71;100235.19;5099118;27;47247;-54
2022/08/14 06:31:59;;;;;;;;;7.00;7.00;;;;;25.05;32.65;100232.53;5099117;27;45493;-53
2022/08/14 06:34:25;;;;;;;;;9.20;6.60;;;;;25.12;32.60;100228.56;5098957;27;45456;-52
2022/08/14 06:36:50;;;;;;;;;7.25;5.75;;;;;25.23;32.47;100242.28;5098856;27;45505;-53
2022/08/14 06:39:16;;;;;;;;;7.50;6.25;;;;;25.25;32.35;100237.41;5098955;27;45395;-53
2022/08/14 06:41:41;;;;;;;;;5.00;5.00;;;;;25.21;31.84;100245.28;5098923;27;45409;-51
2022/08/14 06:44:07;;;;;;;;;5.75;4.25;;;;;25.08;32.26;100249.22;5099294;27;45433;-52
2022/08/14 06:46:33;;;;;;;;;7.75;6.25;;;;;24.96;32.62;100251.22;5099006;27;45416;-54
2022/08/14 06:48:59;;;;;;;;;6.50;6.00;;;;;24.80;32.64;100228.44;5099015;27;45339;-54
2022/08/14 06:51:24;;;;;;;;;7.50;5.50;;;;;24.89;32.84;100250.56;5098847;27;45603;-53
2022/08/14 06:53:50;;;;;;;;;5.25;5.25;;;;;24.87;32.97;100261.72;5098851;27;45259;-53
2022/08/14 06:56:15;;;;;;;;;6.00;6.00;;;;;24.84;33.05;100259.50;5099055;27;45240;-54
2022/08/14 06:58:40;;;;;;;;;7.00;6.00;;;;;24.89;33.01;100258.72;5098338;27;46319;-54
2022/08/14 07:06:33;;;;;;;;;5.75;5.75;;;;;25.05;33.03;100260.56;5099087;27;45352;-52
2022/08/14 07:08:59;;;;;;;;;4.75;4.75;;;;;25.11;32.53;100259.59;5098458;27;45288;-53
2022/08/14 07:11:24;;;;;;;;;5.50;5.50;;;;;25.29;32.69;100272.03;5098612;27;45424;-54
2022/08/14 07:13:50;;;;;;;;;3.25;3.00;;;;;25.35;32.00;100281.06;5098586;27;45378;-53
2022/08/14 07:16:15;;;;;;;;;7.00;6.50;;;;;25.42;32.23;100270.00;5098591;27;45358;-54
2022/08/14 07:18:40;;;;;;;;;6.00;6.00;;;;;25.61;31.72;100274.81;5098353;27;46940;-53
2022/08/14 07:21:07;;;;;;;;;9.25;7.75;;;;;25.74;32.36;100270.84;5098268;27;45356;-52
2022/08/14 07:23:32;;;;;;;;;6.40;6.20;;;;;25.95;31.79;100279.22;5098525;27;45335;-54
2022/08/14 07:26:00;;;;;;;;;6.25;6.00;;;;;26.06;31.50;100268.16;5098487;27;45448;-54
2022/08/14 07:28:31;;;;;;;;;6.75;6.50;;;;;26.44;30.65;100268.16;5098029;27;47623;-55
2022/08/14 07:30:59;;;;;;;;;6.20;5.20;;;;;26.79;30.18;100240.25;5098323;27;45381;-52
2022/08/14 07:33:27;;;;;;;;;6.60;6.00;;;;;27.60;29.63;100264.25;5098218;27;45292;-54
2022/08/14 07:35:53;;;;;;;;;6.60;6.60;;;;;28.33;28.73;100267.59;5098223;27;45414;-53
2022/08/14 07:38:21;;;;;;;;;8.20;6.80;;;;;28.90;27.96;100262.78;5098140;27;46379;-54
2022/08/14 07:40:50;;;;;;;;;8.20;5.40;;;;;29.30;27.03;100267.28;5097537;27;45361;-60
2022/08/14 07:43:16;;;;;;;;;6.00;6.00;;;;;30.01;26.48;100266.00;5097994;27;45406;-54
2022/08/14 07:45:43;;;;;;;;;6.80;6.00;;;;;30.62;25.46;100247.28;5098230;27;45389;-54
2022/08/14 07:48:08;;;;;;;;;5.80;5.80;;;;;31.20;24.62;100236.16;5097832;27;45516;-54
2022/08/14 07:50:34;;;;;;;;;7.00;5.00;;;;;31.60;24.92;100226.47;5098087;27;45243;-54
2022/08/14 07:53:00;;;;;;;;;6.60;6.60;;;;;31.95;23.74;100227.06;5097787;27;45172;-54
2022/08/14 07:55:26;;;;;;;;;7.50;6.25;;;;;32.16;23.52;100228.31;5098243;27;45651;-54
2022/08/14 07:57:53;;;;;;;;;5.60;5.60;;;;;32.26;23.64;100230.88;5097985;27;45576;-54
2022/08/14 08:00:21;;;;;;;;;5.40;5.40;;;;;32.42;23.21;100233.38;5097661;27;45345;-53
2022/08/14 08:02:50;;;;;;;;;6.20;5.00;;;;;32.37;23.68;100230.69;5097856;27;45325;-55
2022/08/14 08:05:17;;;;;;;;;5.60;5.40;;;;;33.97;22.06;100216.72;5098074;27;45242;-54
2022/08/14 08:07:44;;;;;;;;;8.00;6.80;;;;;36.49;19.92;100228.81;5097753;27;46161;-55
2022/08/14 08:10:31;;;;;;;;;4.80;4.00;;;;;38.75;17.64;100224.81;5097522;27;45332;-54
2022/08/14 08:13:14;;;;;;;;;5.20;3.80;;;;;40.92;15.69;100222.81;5097820;27;45354;-54
2022/08/14 08:15:55;;;;;;;;;4.60;4.60;;;;;42.17;15.29;100231.75;5097836;27;45440;-54
2022/08/14 08:18:22;;;;;;;;;4.40;4.40;;;;;42.20;15.05;100235.81;5097234;27;46612;-56
2022/08/14 08:20:51;;;;;;;;;6.00;6.00;;;;;43.45;13.83;100237.69;5097640;27;45752;-54
2022/08/14 08:23:19;;;;;;;;;6.00;5.00;;;;;42.75;13.77;100244.72;5097644;27;45423;-56
2022/08/14 08:25:47;;;;;;;;;5.20;4.20;;;;;42.77;13.90;100240.38;5097757;27;45396;-54
2022/08/14 08:28:16;;;;;;;;;6.00;6.00;;;;;42.81;13.92;100254.41;5097106;27;46117;-55
2022/08/14 08:30:50;;;;;;;;;4.00;4.00;;;;;43.47;13.58;100257.75;5096615;27;45489;-54
2022/08/14 08:33:18;;;;;;;;;4.80;4.80;;;;;43.97;13.53;100258.31;5097548;27;45474;-54
2022/08/14 08:35:44;;;;;;;;;3.40;3.40;;;;;44.56;12.95;100256.44;5097489;27;45325;-56
2022/08/14 08:38:13;;;;;;;;;7.00;5.20;;;;;46.59;11.82;100255.63;5097116;27;47381;-54
2022/08/14 08:40:47;;;;;;;;;6.20;5.20;;;;;45.30;13.34;100258.94;5097128;27;45428;-54
2022/08/14 08:43:29;;;;;;;;;7.60;7.60;;;;;46.33;12.86;100239.94;5097217;27;45349;-56
2022/08/14 08:46:10;;;;;;;;;8.40;7.60;;;;;48.27;12.15;100230.31;5097290;27;45311;-56
2022/08/14 08:48:47;;;;;;;;;7.60;6.00;;;;;49.24;12.31;100230.13;5097127;27;45476;-55
2022/08/14 08:51:34;;;;;;;;;7.00;7.00;;;;;47.44;12.95;100230.03;5097054;27;45569;-52
2022/08/14 08:54:05;;;;;;;;;7.40;6.80;;;;;45.10;14.18;100207.13;5097068;27;45377;-54
2022/08/14 08:56:39;;;;;;;;;5.60;5.40;;;;;44.61;14.82;100208.38;5097183;27;45518;-53
2022/08/14 08:59:22;;;;;;;;;4.20;4.00;;;;;44.16;15.28;100198.41;5096912;27;46059;-53
2022/08/14 09:02:04;;;;;;;;;7.80;7.80;;;;;44.44;15.06;100187.44;5097059;27;45903;-53
2022/08/14 09:04:34;;;;;;;;;6.80;5.20;;;;;43.01;15.91;100208.31;5095887;27;45479;-52
2022/08/14 09:07:00;;;;;;;;;6.80;6.20;;;;;41.72;17.31;100229.69;5097251;27;45410;-53
2022/08/14 09:09:28;;;;;;;;;8.25;6.50;;;;;40.74;17.69;100230.78;5096825;27;45318;-53
2022/08/14 09:11:55;;;;;;;;;7.40;7.00;;;;;40.14;17.91;100233.69;5096984;27;45173;-53
2022/08/14 09:14:21;;;;;;;;;6.20;5.80;;;;;39.54;18.60;100216.09;5096940;27;45251;-53
2022/08/14 09:16:48;;;;;;;;;7.40;5.80;;;;;39.17;19.63;100205.06;5096910;27;45440;-54
2022/08/14 09:19:14;;;;;;;;;3.00;3.00;;;;;38.52;19.37;100207.03;5096622;27;45484;-54
2022/08/14 09:21:41;;;;;;;;;5.40;5.40;;;;;37.79;20.81;100200.16;5096301;27;45391;-54
2022/08/14 09:24:07;;;;;;;;;6.60;6.40;;;;;37.14;20.83;100193.41;5099629;27;45460;-53
2022/08/14 09:26:34;;;;;;;;;5.60;4.20;;;;;36.83;21.39;100216.75;5100470;27;45218;-54
2022/08/14 09:28:59;;;;;;;;;5.00;5.00;;;;;37.06;21.28;100225.59;5099891;27;46245;-53
2022/08/14 09:31:27;;;;;;;;;5.00;5.00;;;;;38.17;20.42;100226.88;5100202;27;45175;-53
2022/08/14 09:34:11;;;;;;;;;5.20;4.40;;;;;38.12;20.55;100227.09;5081723;27;45369;-54
2022/08/14 09:36:52;;;;;;;;;6.80;5.60;;;;;39.36;19.75;100223.91;5100178;27;45429;-53
2022/08/14 09:39:37;;;;;;;;;7.20;5.00;;;;;39.52;19.34;100223.97;5099207;27;46341;-53
2022/08/14 09:42:12;;;;;;;;;6.00;6.00;;;;;40.20;18.67;100223.06;5099957;27;45324;-53
2022/08/14 09:44:51;;;;;;;;;5.40;5.40;;;;;42.04;16.99;100227.53;5081824;27;45316;-53
2022/08/14 09:47:17;;;;;;;;;5.20;5.00;;;;;43.55;15.72;100220.22;5099228;27;45414;-53
2022/08/14 09:49:43;;;;;;;;;6.00;6.00;;;;;44.36;14.89;100211.03;5099666;27;45649;-53
2022/08/14 09:52:14;;;;;;;;;5.60;4.60;;;;;44.56;15.15;100211.56;5099760;27;45326;-55
2022/08/14 09:54:45;;;;;;;;;9.00;4.60;;;;;45.36;14.75;100213.63;5099910;27;45160;-53
2022/08/14 09:57:22;;;;;;;;;6.80;5.80;;;;;46.36;14.21;100211.81;5099858;27;45400;-53
2022/08/14 09:59:48;;;;;;;;;5.40;5.40;;;;;47.87;13.37;100200.78;5098704;27;46096;-53
2022/08/14 10:02:32;;;;;;;;;4.00;4.00;;;;;49.27;12.48;100214.38;5099509;27;45363;-54
2022/08/14 10:05:06;;;;;;;;;2.40;2.40;;;;;49.85;11.64;100212.31;5099361;27;45272;-53
2022/08/14 10:07:36;;;;;;;;;4.60;4.60;;;;;50.21;11.22;100201.25;5098062;27;45346;-54
2022/08/14 10:10:04;;;;;;;;;6.00;6.00;;;;;50.60;11.74;100199.72;5099231;27;47029;-53
2022/08/14 10:12:42;;;;;;;;;5.00;5.00;;;;;51.23;11.17;100204.56;5099409;27;45459;-54
2022/08/14 10:15:19;;;;;;;;;4.40;4.40;;;;;50.18;11.13;100194.41;5099663;27;45493;-54
2022/08/14 10:17:47;;;;;;;;;6.60;5.20;;;;;49.20;11.89;100207.56;5099367;27;45259;-54
2022/08/14 10:20:14;;;;;;;;;4.40;4.40;;;;;49.09;11.73;100198.41;5099143;27;47043;-54
2022/08/14 10:22:39;;;;;;;;;5.40;4.00;;;;;48.81;12.36;100191.09;5099262;27;45325;-54
2022/08/14 10:25:13;;;;;;;;;5.50;3.75;;;;;47.87;12.51;100186.69;5081068;27;45838;-53
2022/08/14 10:27:39;;;;;;;;;5.40;5.00;;;;;46.76;13.15;100202.09;5081024;27;45361;-53
2022/08/14 10:30:21;;;;;;;;;5.00;4.60;;;;;45.88;13.90;100206.56;5099287;27;46548;-54
2022/08/14 10:32:47;;;;;;;;;7.00;4.00;;;;;44.57;14.79;100201.94;5097998;27;45645;-54
2022/08/14 10:35:14;;;;;;;;;4.00;4.00;;;;;43.65;15.21;100210.31;5097989;27;45288;-53
2022/08/14 10:37:49;;;;;;;;;4.20;4.20;;;;;42.67;16.38;100221.44;5099312;27;45432;-54
2022/08/14 10:40:25;;;;;;;;;4.00;4.00;;;;;41.58;16.81;100227.44;5099045;27;46328;-53
2022/08/14 10:42:51;;;;;;;;;4.60;4.60;;;;;40.68;17.51;100235.84;5098787;27;45423;-54
2022/08/14 10:45:23;;;;;;;;;4.25;4.25;;;;;39.85;18.19;100226.50;5099148;27;45575;-53
2022/08/14 10:47:51;;;;;;;;;4.80;4.40;;;;;39.62;18.64;100229.06;5099165;27;45356;-53
2022/08/14 10:50:28;;;;;;;;;4.40;3.20;;;;;39.91;18.79;100225.91;5098977;27;47115;-54
2022/08/14 10:52:58;;;;;;;;;7.00;5.60;;;;;40.07;18.27;100225.91;5080371;27;45223;-54
2022/08/14 10:55:31;;;;;;;;;6.00;5.40;;;;;39.98;18.20;100219.69;5099013;27;45416;-54
2022/08/14 10:57:57;;;;;;;;;5.00;3.00;;;;;39.87;18.82;100224.19;5098828;27;45312;-53
2022/08/14 11:00:27;;;;;;;;;6.00;3.50;;;;;39.29;18.79;100220.94;5098549;27;45957;-53
2022/08/14 11:03:08;;;;;;;;;4.40;3.80;;;;;38.77;19.41;100228.13;5098692;27;45372;-53
2022/08/14 11:05:40;;;;;;;;;10.00;5.40;;;;;38.08;20.84;100223.38;5098560;27;45388;-53
2022/08/14 11:08:06;;;;;;;;;4.40;4.40;;;;;37.56;21.25;100221.13;5098795;27;45444;-54
2022/08/14 11:10:54;;;;;;;;;6.80;5.40;;;;;36.88;21.29;100224.06;5098296;27;46354;-54
2022/08/14 11:13:23;;;;;;;;;5.20;4.20;;;;;36.36;22.48;100224.28;5098392;27;45472;-53
2022/08/14 11:15:49;;;;;;;;;6.80;5.60;;;;;36.00;22.99;100233.88;5098670;27;45290;-54
2022/08/14 11:18:16;;;;;;;;;8.25;6.50;;;;;35.62;22.86;100234.56;5098300;27;45395;-52
2022/08/14 11:20:49;;;;;;;;;8.40;4.60;;;;;35.25;22.80;100234.06;5098127;27;46918;-53
2022/08/14 11:23:18;;;;;;;;;7.80;5.40;;;;;34.87;23.91;100233.81;5098452;27;45281;-53
2022/08/14 11:25:44;;;;;;;;;6.00;5.00;;;;;34.62;24.92;100240.91;5098530;27;45355;-53
2022/08/14 11:28:13;;;;;;;;;6.80;5.40;;;;;34.39;25.09;100237.38;5098454;27;45347;-53
2022/08/14 11:30:41;;;;;;;;;7.00;7.00;;;;;34.19;24.97;100218.59;5098163;27;46067;-53
2022/08/14 11:33:07;;;;;;;;;9.60;7.00;;;;;34.05;24.75;100220.63;5098149;27;45302;-54
2022/08/14 11:35:32;;;;;;;;;8.25;6.75;;;;;33.98;25.19;100232.13;5098117;27;45224;-55
2022/08/14 11:38:03;;;;;;;;;7.75;7.75;;;;;33.91;25.96;100235.28;5098486;27;45466;-53
2022/08/14 11:40:31;;;;;;;;;6.60;6.20;;;;;33.72;24.62;100242.97;5097867;27;45412;-53
2022/08/14 11:42:57;;;;;;;;;7.40;7.40;;;;;33.38;27.62;100247.06;5098159;27;45239;-53